Freeport, TX (77541)

9:41 PM CST on February 05, 2016 (GMT -0600)
Pretreatment Facility | | Change Station
CLOSE
Current Station
Personal Weather Station
Location: Freeport, TX
Elevation: 13 ft
Nearby Weather Stations

Elev 13 ft 28.98 °N, 95.31 °W | Updated 11 minutes ago

Mostly Cloudy
Mostly Cloudy
54.5 °F
Feels Like 54.5 °F
N
13.0
Wind Variable Wind from ESE

Today
High -- | Low -- °F
--% Chance of Precip.
Yesterday
High -- | Low -- °F
Precip. -- in
Pressure 30.34 in
Visibility 10.0 miles
Clouds Overcast 7000 ft
Dew Point 40 °F
Humidity 57%
Rainfall 0.00 in
Snow Depth Not available.
7:07 AM 6:03 PM
Waning Crescent, 8% visible
METAR KLBX 060253Z AUTO 11006KT 10SM OVC070 11/04 A3034 RMK AO2 SLP272 T01110039 58004
Pressure 30.34 in
Visibility 10.0 miles
Clouds Overcast 7000 ft
Dew Point 40 °F
Humidity 57%
Rainfall 0.00 in
Snow Depth Not available.
7:07 AM 6:03 PM
Waning Crescent, 8% visible
METAR KLBX 060253Z AUTO 11006KT 10SM OVC070 11/04 A3034 RMK AO2 SLP272 T01110039 58004

10-Day Weather Forecast

Almanac

Astronomy

Feb. 05, 2016 Rise Set
Actual Time
Civil Twilight
Nautical Twilight
Astronomical Twilight
Moon
Length of Visible Light
Length of Day
Tomorrow will be .
, % of the Moon is Illuminated

Today's Extremes

State Highs State Lows

Community

WunderPhotos

Upload Photos

1,890,922 photos uploaded!

WunderBlog® & News

Nearby

Air Quality

  Air Quality AQ Index Pollutant
Not available.

Snow Depth

Station Depth Elevation

Earthquake Activity

City Distance Mag. Time & Date
Minimum magnitude displayed is 2.5.

Coastal Water Temperatures

Place Temperature

Stations

Nearby Weather Stations

Station Location Temp. Windchill Dew Point Humidity Wind Precip. Elev Updated Type
                   

Watches & Warnings

There are currently no watches in effect.